METAR Data
IDs: Format: Raw Decoded Include TAF

Data at: 0720 UTC 01 Aug 2021

EGLC 010650Z AUTO 25005KT 9999 FEW006 SCT028 BKN037 16/15 Q1011